sensor_id;sensor_type;location;lat;lon;timestamp;temperature;humidity
43087;DHT22;28708;52.224;6.924;2023-05-10T00:00:39;14.10;99.90
43087;DHT22;28708;52.224;6.924;2023-05-10T00:03:05;14.10;99.90
43087;DHT22;28708;52.224;6.924;2023-05-10T00:05:31;14.00;99.90
43087;DHT22;28708;52.224;6.924;2023-05-10T00:07:57;14.00;99.90
43087;DHT22;28708;52.224;6.924;2023-05-10T00:10:22;13.90;99.90
43087;DHT22;28708;52.224;6.924;2023-05-10T00:12:48;13.70;99.90
43087;DHT22;28708;52.224;6.924;2023-05-10T00:15:14;13.70;99.90
43087;DHT22;28708;52.224;6.924;2023-05-10T00:17:39;13.70;99.90
43087;DHT22;28708;52.224;6.924;2023-05-10T00:20:07;13.60;99.90
43087;DHT22;28708;52.224;6.924;2023-05-10T00:22:33;13.70;99.90
43087;DHT22;28708;52.224;6.924;2023-05-10T00:24:59;13.70;99.90
43087;DHT22;28708;52.224;6.924;2023-05-10T00:27:24;13.60;99.90
43087;DHT22;28708;52.224;6.924;2023-05-10T00:29:50;13.50;99.90
43087;DHT22;28708;52.224;6.924;2023-05-10T00:32:16;13.40;99.90
43087;DHT22;28708;52.224;6.924;2023-05-10T00:34:42;13.40;99.90
43087;DHT22;28708;52.224;6.924;2023-05-10T00:37:08;13.40;99.90
43087;DHT22;28708;52.224;6.924;2023-05-10T00:39:33;13.40;99.90
43087;DHT22;28708;52.224;6.924;2023-05-10T00:41:59;13.30;99.90
43087;DHT22;28708;52.224;6.924;2023-05-10T00:44:26;13.20;99.90
43087;DHT22;28708;52.224;6.924;2023-05-10T00:46:52;13.20;99.90
43087;DHT22;28708;52.224;6.924;2023-05-10T00:49:19;13.10;99.90
43087;DHT22;28708;52.224;6.924;2023-05-10T00:51:45;13.10;99.90
43087;DHT22;28708;52.224;6.924;2023-05-10T00:54:14;13.20;99.90
43087;DHT22;28708;52.224;6.924;2023-05-10T00:56:41;13.10;99.90
43087;DHT22;28708;52.224;6.924;2023-05-10T00:59:09;13.10;99.90
43087;DHT22;28708;52.224;6.924;2023-05-10T01:01:35;13.10;99.90
43087;DHT22;28708;52.224;6.924;2023-05-10T01:04:02;13.20;99.90
43087;DHT22;28708;52.224;6.924;2023-05-10T01:06:28;13.20;99.90
43087;DHT22;28708;52.224;6.924;2023-05-10T01:08:54;13.20;99.90
43087;DHT22;28708;52.224;6.924;2023-05-10T01:11:21;13.00;99.90
43087;DHT22;28708;52.224;6.924;2023-05-10T01:13:52;13.10;99.90
43087;DHT22;28708;52.224;6.924;2023-05-10T01:16:20;13.20;99.90
43087;DHT22;28708;52.224;6.924;2023-05-10T01:18:48;13.20;99.90
43087;DHT22;28708;52.224;6.924;2023-05-10T01:21:37;13.20;99.90
43087;DHT22;28708;52.224;6.924;2023-05-10T01:38:36;13.30;99.90
43087;DHT22;28708;52.224;6.924;2023-05-10T01:46:37;13.10;99.90
43087;DHT22;28708;52.224;6.924;2023-05-10T01:49:08;13.10;99.90
43087;DHT22;28708;52.224;6.924;2023-05-10T01:51:57;13.10;99.90
43087;DHT22;28708;52.224;6.924;2023-05-10T01:54:24;13.00;99.90
43087;DHT22;28708;52.224;6.924;2023-05-10T01:56:56;13.00;99.90
43087;DHT22;28708;52.224;6.924;2023-05-10T01:59:28;13.00;99.90
43087;DHT22;28708;52.224;6.924;2023-05-10T02:01:58;13.10;99.90
43087;DHT22;28708;52.224;6.924;2023-05-10T02:04:24;13.10;99.90
43087;DHT22;28708;52.224;6.924;2023-05-10T02:06:51;13.10;99.90
43087;DHT22;28708;52.224;6.924;2023-05-10T02:09:20;13.10;99.90
43087;DHT22;28708;52.224;6.924;2023-05-10T02:11:48;13.00;99.90
43087;DHT22;28708;52.224;6.924;2023-05-10T02:14:15;13.00;99.90
43087;DHT22;28708;52.224;6.924;2023-05-10T02:16:42;13.00;99.90
43087;DHT22;28708;52.224;6.924;2023-05-10T02:19:09;13.00;99.90
43087;DHT22;28708;52.224;6.924;2023-05-10T02:21:35;13.00;99.90
43087;DHT22;28708;52.224;6.924;2023-05-10T02:24:03;12.90;99.90
43087;DHT22;28708;52.224;6.924;2023-05-10T02:26:31;12.90;99.90
43087;DHT22;28708;52.224;6.924;2023-05-10T02:28:58;13.00;99.90
43087;DHT22;28708;52.224;6.924;2023-05-10T02:31:26;12.90;99.90
43087;DHT22;28708;52.224;6.924;2023-05-10T02:33:53;12.90;99.90
43087;DHT22;28708;52.224;6.924;2023-05-10T02:36:21;13.00;99.90
43087;DHT22;28708;52.224;6.924;2023-05-10T02:38:47;12.80;99.90
43087;DHT22;28708;52.224;6.924;2023-05-10T02:41:15;12.80;99.90
43087;DHT22;28708;52.224;6.924;2023-05-10T02:43:42;12.80;99.90
43087;DHT22;28708;52.224;6.924;2023-05-10T02:46:08;12.90;99.90
43087;DHT22;28708;52.224;6.924;2023-05-10T02:48:34;12.90;99.90
43087;DHT22;28708;52.224;6.924;2023-05-10T02:51:04;12.70;99.90
43087;DHT22;28708;52.224;6.924;2023-05-10T02:53:31;12.80;99.90
43087;DHT22;28708;52.224;6.924;2023-05-10T02:56:00;12.80;99.90
43087;DHT22;28708;52.224;6.924;2023-05-10T02:58:27;12.70;99.90
43087;DHT22;28708;52.224;6.924;2023-05-10T03:00:52;12.70;99.90
43087;DHT22;28708;52.224;6.924;2023-05-10T03:03:19;12.80;99.90
43087;DHT22;28708;52.224;6.924;2023-05-10T03:05:47;12.70;99.90
43087;DHT22;28708;52.224;6.924;2023-05-10T03:08:13;12.70;99.90
43087;DHT22;28708;52.224;6.924;2023-05-10T03:10:47;12.70;99.90
43087;DHT22;28708;52.224;6.924;2023-05-10T03:13:25;12.70;99.90
43087;DHT22;28708;52.224;6.924;2023-05-10T03:16:16;12.70;99.90
43087;DHT22;28708;52.224;6.924;2023-05-10T03:18:48;12.70;99.90
43087;DHT22;28708;52.224;6.924;2023-05-10T03:21:17;12.70;99.90
43087;DHT22;28708;52.224;6.924;2023-05-10T03:23:59;12.70;99.90
43087;DHT22;28708;52.224;6.924;2023-05-10T03:26:28;12.80;99.90
43087;DHT22;28708;52.224;6.924;2023-05-10T03:29:04;12.80;99.90
43087;DHT22;28708;52.224;6.924;2023-05-10T03:31:31;12.90;99.90
43087;DHT22;28708;52.224;6.924;2023-05-10T03:33:58;12.80;99.90
43087;DHT22;28708;52.224;6.924;2023-05-10T03:36:25;12.70;99.90
43087;DHT22;28708;52.224;6.924;2023-05-10T03:38:51;12.70;99.90
43087;DHT22;28708;52.224;6.924;2023-05-10T03:41:17;12.80;99.90
43087;DHT22;28708;52.224;6.924;2023-05-10T03:43:43;12.80;99.90
43087;DHT22;28708;52.224;6.924;2023-05-10T03:46:09;12.80;99.90
43087;DHT22;28708;52.224;6.924;2023-05-10T03:48:35;12.80;99.90
43087;DHT22;28708;52.224;6.924;2023-05-10T03:51:00;12.70;99.90
43087;DHT22;28708;52.224;6.924;2023-05-10T03:53:26;12.80;99.90
43087;DHT22;28708;52.224;6.924;2023-05-10T03:55:52;12.70;99.90
43087;DHT22;28708;52.224;6.924;2023-05-10T03:58:17;12.90;99.90
43087;DHT22;28708;52.224;6.924;2023-05-10T04:00:44;12.90;99.90
43087;DHT22;28708;52.224;6.924;2023-05-10T04:03:12;12.90;99.90
43087;DHT22;28708;52.224;6.924;2023-05-10T04:05:37;12.80;99.90
43087;DHT22;28708;52.224;6.924;2023-05-10T04:08:04;12.90;99.90
43087;DHT22;28708;52.224;6.924;2023-05-10T04:10:30;12.90;99.90
43087;DHT22;28708;52.224;6.924;2023-05-10T04:12:55;13.00;99.90
43087;DHT22;28708;52.224;6.924;2023-05-10T04:15:21;13.00;99.90
43087;DHT22;28708;52.224;6.924;2023-05-10T04:17:47;12.90;99.90
43087;DHT22;28708;52.224;6.924;2023-05-10T04:20:13;12.90;99.90
43087;DHT22;28708;52.224;6.924;2023-05-10T04:22:39;13.00;99.90
43087;DHT22;28708;52.224;6.924;2023-05-10T04:25:05;12.90;99.90
43087;DHT22;28708;52.224;6.924;2023-05-10T04:27:31;12.90;99.90
43087;DHT22;28708;52.224;6.924;2023-05-10T04:29:57;12.90;99.90
43087;DHT22;28708;52.224;6.924;2023-05-10T04:32:23;12.90;99.90
43087;DHT22;28708;52.224;6.924;2023-05-10T04:34:49;13.00;99.90
43087;DHT22;28708;52.224;6.924;2023-05-10T04:37:16;12.90;99.90
43087;DHT22;28708;52.224;6.924;2023-05-10T04:39:41;12.80;99.90
43087;DHT22;28708;52.224;6.924;2023-05-10T04:42:07;12.90;99.90
43087;DHT22;28708;52.224;6.924;2023-05-10T04:44:33;12.90;99.90
43087;DHT22;28708;52.224;6.924;2023-05-10T04:46:59;13.10;99.90
43087;DHT22;28708;52.224;6.924;2023-05-10T04:49:25;13.10;99.90
43087;DHT22;28708;52.224;6.924;2023-05-10T04:51:50;13.00;99.90
43087;DHT22;28708;52.224;6.924;2023-05-10T04:54:16;13.00;99.90
43087;DHT22;28708;52.224;6.924;2023-05-10T04:56:42;13.00;99.90
43087;DHT22;28708;52.224;6.924;2023-05-10T04:59:07;13.00;99.90
43087;DHT22;28708;52.224;6.924;2023-05-10T05:01:33;13.10;99.90
43087;DHT22;28708;52.224;6.924;2023-05-10T05:03:59;13.00;99.90
43087;DHT22;28708;52.224;6.924;2023-05-10T05:06:24;13.00;99.90
43087;DHT22;28708;52.224;6.924;2023-05-10T05:08:51;13.00;99.90
43087;DHT22;28708;52.224;6.924;2023-05-10T05:11:17;13.10;99.90
43087;DHT22;28708;52.224;6.924;2023-05-10T05:13:43;13.10;99.90
43087;DHT22;28708;52.224;6.924;2023-05-10T05:16:09;13.10;99.90
43087;DHT22;28708;52.224;6.924;2023-05-10T05:18:36;13.10;99.90
43087;DHT22;28708;52.224;6.924;2023-05-10T05:21:01;13.20;99.90
43087;DHT22;28708;52.224;6.924;2023-05-10T05:23:27;13.20;99.90
43087;DHT22;28708;52.224;6.924;2023-05-10T05:25:53;13.20;99.90
43087;DHT22;28708;52.224;6.924;2023-05-10T05:28:20;13.30;99.90
43087;DHT22;28708;52.224;6.924;2023-05-10T05:30:45;13.20;99.90
43087;DHT22;28708;52.224;6.924;2023-05-10T05:33:13;13.30;99.90
43087;DHT22;28708;52.224;6.924;2023-05-10T05:35:39;13.20;99.90
43087;DHT22;28708;52.224;6.924;2023-05-10T05:38:04;13.30;99.90
43087;DHT22;28708;52.224;6.924;2023-05-10T05:40:30;13.30;99.90
43087;DHT22;28708;52.224;6.924;2023-05-10T05:42:56;13.30;99.90
43087;DHT22;28708;52.224;6.924;2023-05-10T05:45:21;13.40;99.90
43087;DHT22;28708;52.224;6.924;2023-05-10T05:47:47;13.40;99.90
43087;DHT22;28708;52.224;6.924;2023-05-10T05:50:13;13.40;99.90
43087;DHT22;28708;52.224;6.924;2023-05-10T05:52:39;13.50;99.90
43087;DHT22;28708;52.224;6.924;2023-05-10T05:55:05;13.60;99.90
43087;DHT22;28708;52.224;6.924;2023-05-10T05:57:30;13.60;99.90
43087;DHT22;28708;52.224;6.924;2023-05-10T05:59:56;13.60;99.90
43087;DHT22;28708;52.224;6.924;2023-05-10T06:02:22;13.50;99.90
43087;DHT22;28708;52.224;6.924;2023-05-10T06:04:47;13.60;99.90
43087;DHT22;28708;52.224;6.924;2023-05-10T06:07:13;13.50;99.90
43087;DHT22;28708;52.224;6.924;2023-05-10T06:09:38;13.40;99.90
43087;DHT22;28708;52.224;6.924;2023-05-10T06:12:04;13.40;99.90
43087;DHT22;28708;52.224;6.924;2023-05-10T06:14:30;13.40;99.90
43087;DHT22;28708;52.224;6.924;2023-05-10T06:16:56;13.50;99.90
43087;DHT22;28708;52.224;6.924;2023-05-10T06:19:21;13.50;99.90
43087;DHT22;28708;52.224;6.924;2023-05-10T06:21:47;13.40;99.90
43087;DHT22;28708;52.224;6.924;2023-05-10T06:24:13;13.40;99.90
43087;DHT22;28708;52.224;6.924;2023-05-10T06:26:38;13.40;99.90
43087;DHT22;28708;52.224;6.924;2023-05-10T06:29:04;13.40;99.90
43087;DHT22;28708;52.224;6.924;2023-05-10T06:31:29;13.40;99.90
43087;DHT22;28708;52.224;6.924;2023-05-10T06:33:55;13.30;99.90
43087;DHT22;28708;52.224;6.924;2023-05-10T06:36:21;13.40;99.90
43087;DHT22;28708;52.224;6.924;2023-05-10T06:38:47;13.40;99.90
43087;DHT22;28708;52.224;6.924;2023-05-10T06:41:13;13.40;99.90
43087;DHT22;28708;52.224;6.924;2023-05-10T06:43:38;13.30;99.90
43087;DHT22;28708;52.224;6.924;2023-05-10T06:46:06;13.40;99.90
43087;DHT22;28708;52.224;6.924;2023-05-10T06:48:32;13.40;99.90
43087;DHT22;28708;52.224;6.924;2023-05-10T06:50:58;13.50;99.90
43087;DHT22;28708;52.224;6.924;2023-05-10T06:53:24;13.40;99.90
43087;DHT22;28708;52.224;6.924;2023-05-10T06:55:49;13.50;99.90
43087;DHT22;28708;52.224;6.924;2023-05-10T06:58:15;13.40;99.90
43087;DHT22;28708;52.224;6.924;2023-05-10T07:00:41;13.40;99.90
43087;DHT22;28708;52.224;6.924;2023-05-10T07:03:09;13.50;99.90
43087;DHT22;28708;52.224;6.924;2023-05-10T07:05:35;13.50;99.90
43087;DHT22;28708;52.224;6.924;2023-05-10T07:08:01;13.50;99.90
43087;DHT22;28708;52.224;6.924;2023-05-10T07:10:27;13.50;99.90
43087;DHT22;28708;52.224;6.924;2023-05-10T07:12:52;13.50;99.90
43087;DHT22;28708;52.224;6.924;2023-05-10T07:15:18;13.70;99.90
43087;DHT22;28708;52.224;6.924;2023-05-10T07:17:44;13.70;99.90
43087;DHT22;28708;52.224;6.924;2023-05-10T07:20:10;14.00;99.90
43087;DHT22;28708;52.224;6.924;2023-05-10T07:22:35;14.00;99.90
43087;DHT22;28708;52.224;6.924;2023-05-10T07:25:01;14.20;99.90
43087;DHT22;28708;52.224;6.924;2023-05-10T07:27:27;14.30;99.90
43087;DHT22;28708;52.224;6.924;2023-05-10T07:29:53;14.20;99.90
43087;DHT22;28708;52.224;6.924;2023-05-10T07:32:20;14.20;99.90
43087;DHT22;28708;52.224;6.924;2023-05-10T07:34:45;14.10;99.90
43087;DHT22;28708;52.224;6.924;2023-05-10T07:37:11;14.20;99.90
43087;DHT22;28708;52.224;6.924;2023-05-10T07:39:37;14.30;99.90
43087;DHT22;28708;52.224;6.924;2023-05-10T07:42:06;14.30;99.90
43087;DHT22;28708;52.224;6.924;2023-05-10T07:44:32;14.20;99.90
43087;DHT22;28708;52.224;6.924;2023-05-10T07:46:58;14.00;99.90
43087;DHT22;28708;52.224;6.924;2023-05-10T07:49:23;14.00;99.90
43087;DHT22;28708;52.224;6.924;2023-05-10T07:51:51;14.00;99.90
43087;DHT22;28708;52.224;6.924;2023-05-10T07:54:17;14.10;99.90
43087;DHT22;28708;52.224;6.924;2023-05-10T07:56:43;14.20;99.90
43087;DHT22;28708;52.224;6.924;2023-05-10T07:59:18;14.20;99.90
43087;DHT22;28708;52.224;6.924;2023-05-10T08:01:44;14.40;99.90
43087;DHT22;28708;52.224;6.924;2023-05-10T08:04:10;14.50;99.90
43087;DHT22;28708;52.224;6.924;2023-05-10T08:06:36;14.60;99.90
43087;DHT22;28708;52.224;6.924;2023-05-10T08:09:02;14.60;99.90
43087;DHT22;28708;52.224;6.924;2023-05-10T08:11:28;14.60;99.90
43087;DHT22;28708;52.224;6.924;2023-05-10T08:13:53;14.50;99.90
43087;DHT22;28708;52.224;6.924;2023-05-10T08:16:19;14.40;99.90
43087;DHT22;28708;52.224;6.924;2023-05-10T08:18:46;14.40;99.90
43087;DHT22;28708;52.224;6.924;2023-05-10T08:21:13;14.40;99.90
43087;DHT22;28708;52.224;6.924;2023-05-10T08:23:39;14.40;99.90
43087;DHT22;28708;52.224;6.924;2023-05-10T08:26:05;14.50;99.90
43087;DHT22;28708;52.224;6.924;2023-05-10T08:28:31;14.60;99.90
43087;DHT22;28708;52.224;6.924;2023-05-10T08:30:56;14.30;99.90
43087;DHT22;28708;52.224;6.924;2023-05-10T08:33:22;14.30;99.90
43087;DHT22;28708;52.224;6.924;2023-05-10T08:35:48;14.30;99.90
43087;DHT22;28708;52.224;6.924;2023-05-10T08:38:14;14.30;99.90
43087;DHT22;28708;52.224;6.924;2023-05-10T08:40:42;14.10;99.90
43087;DHT22;28708;52.224;6.924;2023-05-10T08:43:10;14.20;99.90
43087;DHT22;28708;52.224;6.924;2023-05-10T08:45:40;14.30;99.90
43087;DHT22;28708;52.224;6.924;2023-05-10T08:48:08;14.30;99.90
43087;DHT22;28708;52.224;6.924;2023-05-10T08:50:35;14.30;99.90
43087;DHT22;28708;52.224;6.924;2023-05-10T08:53:09;14.40;99.90
43087;DHT22;28708;52.224;6.924;2023-05-10T08:55:35;14.30;99.90
43087;DHT22;28708;52.224;6.924;2023-05-10T08:58:03;14.30;99.90
43087;DHT22;28708;52.224;6.924;2023-05-10T09:00:29;14.30;99.90
43087;DHT22;28708;52.224;6.924;2023-05-10T09:02:56;14.60;99.90
43087;DHT22;28708;52.224;6.924;2023-05-10T09:05:23;14.60;99.90
43087;DHT22;28708;52.224;6.924;2023-05-10T09:07:48;14.60;99.90
43087;DHT22;28708;52.224;6.924;2023-05-10T09:10:14;14.60;99.90
43087;DHT22;28708;52.224;6.924;2023-05-10T09:12:40;14.80;99.90
43087;DHT22;28708;52.224;6.924;2023-05-10T09:15:07;14.80;99.90
43087;DHT22;28708;52.224;6.924;2023-05-10T09:17:34;14.60;99.90
43087;DHT22;28708;52.224;6.924;2023-05-10T09:20:01;14.40;99.90
43087;DHT22;28708;52.224;6.924;2023-05-10T09:22:28;14.50;99.90
43087;DHT22;28708;52.224;6.924;2023-05-10T09:25:06;14.50;99.90
43087;DHT22;28708;52.224;6.924;2023-05-10T09:27:33;14.40;99.90
43087;DHT22;28708;52.224;6.924;2023-05-10T09:29:58;14.60;99.90
43087;DHT22;28708;52.224;6.924;2023-05-10T09:32:41;14.70;99.90
43087;DHT22;28708;52.224;6.924;2023-05-10T09:35:12;14.90;99.90
43087;DHT22;28708;52.224;6.924;2023-05-10T09:37:40;14.70;99.90
43087;DHT22;28708;52.224;6.924;2023-05-10T09:40:16;14.70;99.90
43087;DHT22;28708;52.224;6.924;2023-05-10T09:42:50;14.90;99.90
43087;DHT22;28708;52.224;6.924;2023-05-10T09:45:16;15.00;99.90
43087;DHT22;28708;52.224;6.924;2023-05-10T09:47:41;15.00;99.90
43087;DHT22;28708;52.224;6.924;2023-05-10T09:50:07;14.90;99.90
43087;DHT22;28708;52.224;6.924;2023-05-10T09:53:05;14.70;99.90
43087;DHT22;28708;52.224;6.924;2023-05-10T09:55:40;14.90;99.90
43087;DHT22;28708;52.224;6.924;2023-05-10T09:58:06;15.30;99.90
43087;DHT22;28708;52.224;6.924;2023-05-10T10:00:37;15.40;99.90
43087;DHT22;28708;52.224;6.924;2023-05-10T10:03:03;15.50;99.90
43087;DHT22;28708;52.224;6.924;2023-05-10T10:05:34;15.90;99.90
43087;DHT22;28708;52.224;6.924;2023-05-10T10:08:04;16.00;99.90
43087;DHT22;28708;52.224;6.924;2023-05-10T10:10:31;15.80;99.90
43087;DHT22;28708;52.224;6.924;2023-05-10T10:12:57;15.50;99.90
43087;DHT22;28708;52.224;6.924;2023-05-10T10:15:23;15.70;99.90
43087;DHT22;28708;52.224;6.924;2023-05-10T10:17:51;15.60;99.90
43087;DHT22;28708;52.224;6.924;2023-05-10T10:20:17;15.60;99.90
43087;DHT22;28708;52.224;6.924;2023-05-10T10:22:43;15.40;99.90
43087;DHT22;28708;52.224;6.924;2023-05-10T10:25:11;15.40;99.90
43087;DHT22;28708;52.224;6.924;2023-05-10T10:30:45;15.20;99.90
43087;DHT22;28708;52.224;6.924;2023-05-10T10:35:45;15.60;99.90
43087;DHT22;28708;52.224;6.924;2023-05-10T10:38:13;15.70;99.90
43087;DHT22;28708;52.224;6.924;2023-05-10T10:40:38;15.80;99.90
43087;DHT22;28708;52.224;6.924;2023-05-10T10:46:10;15.60;99.90
43087;DHT22;28708;52.224;6.924;2023-05-10T10:48:39;16.00;99.90
43087;DHT22;28708;52.224;6.924;2023-05-10T10:51:05;16.50;99.90
43087;DHT22;28708;52.224;6.924;2023-05-10T10:53:31;16.80;99.90
43087;DHT22;28708;52.224;6.924;2023-05-10T10:56:13;16.70;99.90
43087;DHT22;28708;52.224;6.924;2023-05-10T10:58:41;17.40;99.90
43087;DHT22;28708;52.224;6.924;2023-05-10T11:01:14;18.10;99.90
43087;DHT22;28708;52.224;6.924;2023-05-10T11:03:41;18.30;99.90
43087;DHT22;28708;52.224;6.924;2023-05-10T11:06:29;17.60;99.90
43087;DHT22;28708;52.224;6.924;2023-05-10T11:08:57;17.40;99.90
43087;DHT22;28708;52.224;6.924;2023-05-10T11:11:23;18.60;99.90
43087;DHT22;28708;52.224;6.924;2023-05-10T11:13:48;19.00;99.90
43087;DHT22;28708;52.224;6.924;2023-05-10T11:21:18;18.40;99.90
43087;DHT22;28708;52.224;6.924;2023-05-10T11:23:49;19.30;99.90
43087;DHT22;28708;52.224;6.924;2023-05-10T11:26:15;18.90;99.90
43087;DHT22;28708;52.224;6.924;2023-05-10T11:28:45;18.20;99.90
43087;DHT22;28708;52.224;6.924;2023-05-10T11:31:14;17.40;99.90
43087;DHT22;28708;52.224;6.924;2023-05-10T11:33:52;16.70;99.90
43087;DHT22;28708;52.224;6.924;2023-05-10T11:36:29;16.60;99.90
43087;DHT22;28708;52.224;6.924;2023-05-10T11:38:56;16.50;99.90
43087;DHT22;28708;52.224;6.924;2023-05-10T11:41:23;16.70;99.90
43087;DHT22;28708;52.224;6.924;2023-05-10T11:43:51;16.90;99.90
43087;DHT22;28708;52.224;6.924;2023-05-10T11:46:19;17.00;99.90
43087;DHT22;28708;52.224;6.924;2023-05-10T11:48:48;17.40;99.90
43087;DHT22;28708;52.224;6.924;2023-05-10T11:51:14;17.60;99.90
43087;DHT22;28708;52.224;6.924;2023-05-10T11:53:40;16.90;99.90
43087;DHT22;28708;52.224;6.924;2023-05-10T11:56:07;16.90;99.90
43087;DHT22;28708;52.224;6.924;2023-05-10T11:58:34;17.00;99.90
43087;DHT22;28708;52.224;6.924;2023-05-10T12:01:00;17.00;99.90
43087;DHT22;28708;52.224;6.924;2023-05-10T12:03:29;17.20;99.90
43087;DHT22;28708;52.224;6.924;2023-05-10T12:05:56;17.20;99.90
43087;DHT22;28708;52.224;6.924;2023-05-10T12:08:27;17.10;99.90
43087;DHT22;28708;52.224;6.924;2023-05-10T12:11:09;16.90;99.90
43087;DHT22;28708;52.224;6.924;2023-05-10T12:13:42;16.70;99.90
43087;DHT22;28708;52.224;6.924;2023-05-10T12:16:21;16.70;99.90
43087;DHT22;28708;52.224;6.924;2023-05-10T12:18:56;16.70;99.90
43087;DHT22;28708;52.224;6.924;2023-05-10T12:21:23;16.80;99.90
43087;DHT22;28708;52.224;6.924;2023-05-10T12:23:51;17.20;99.90
43087;DHT22;28708;52.224;6.924;2023-05-10T12:26:17;17.40;99.90
43087;DHT22;28708;52.224;6.924;2023-05-10T12:28:43;17.30;99.90
43087;DHT22;28708;52.224;6.924;2023-05-10T12:31:09;17.40;99.90
43087;DHT22;28708;52.224;6.924;2023-05-10T12:33:43;17.50;99.90
43087;DHT22;28708;52.224;6.924;2023-05-10T12:36:15;18.00;99.90
43087;DHT22;28708;52.224;6.924;2023-05-10T12:38:43;18.30;99.90
43087;DHT22;28708;52.224;6.924;2023-05-10T12:41:11;18.00;99.90
43087;DHT22;28708;52.224;6.924;2023-05-10T12:43:37;17.80;99.90
43087;DHT22;28708;52.224;6.924;2023-05-10T12:46:11;17.90;99.90
43087;DHT22;28708;52.224;6.924;2023-05-10T12:48:38;17.60;99.90
43087;DHT22;28708;52.224;6.924;2023-05-10T12:51:05;17.50;99.90
43087;DHT22;28708;52.224;6.924;2023-05-10T12:53:31;17.00;99.90
43087;DHT22;28708;52.224;6.924;2023-05-10T12:55:57;17.10;99.90
43087;DHT22;28708;52.224;6.924;2023-05-10T12:58:23;17.20;99.90
43087;DHT22;28708;52.224;6.924;2023-05-10T13:00:48;17.20;99.90
43087;DHT22;28708;52.224;6.924;2023-05-10T13:03:14;17.30;99.90
43087;DHT22;28708;52.224;6.924;2023-05-10T13:05:41;17.50;99.90
43087;DHT22;28708;52.224;6.924;2023-05-10T13:08:07;17.90;99.90
43087;DHT22;28708;52.224;6.924;2023-05-10T13:10:32;18.10;99.90
43087;DHT22;28708;52.224;6.924;2023-05-10T13:12:58;18.10;99.90
43087;DHT22;28708;52.224;6.924;2023-05-10T13:15:25;17.60;99.90
43087;DHT22;28708;52.224;6.924;2023-05-10T13:17:51;17.50;99.90
43087;DHT22;28708;52.224;6.924;2023-05-10T13:20:17;17.50;99.90
43087;DHT22;28708;52.224;6.924;2023-05-10T13:22:43;17.30;99.90
43087;DHT22;28708;52.224;6.924;2023-05-10T13:25:10;17.20;99.90
43087;DHT22;28708;52.224;6.924;2023-05-10T13:27:36;17.40;99.90
43087;DHT22;28708;52.224;6.924;2023-05-10T13:30:03;17.60;99.90
43087;DHT22;28708;52.224;6.924;2023-05-10T13:32:29;17.60;99.90
43087;DHT22;28708;52.224;6.924;2023-05-10T13:34:55;17.40;99.90
43087;DHT22;28708;52.224;6.924;2023-05-10T13:37:21;17.40;99.90
43087;DHT22;28708;52.224;6.924;2023-05-10T13:39:47;17.60;99.90
43087;DHT22;28708;52.224;6.924;2023-05-10T13:42:13;17.60;99.90
43087;DHT22;28708;52.224;6.924;2023-05-10T13:44:39;17.50;99.90
43087;DHT22;28708;52.224;6.924;2023-05-10T13:47:05;17.60;99.90
43087;DHT22;28708;52.224;6.924;2023-05-10T13:49:30;17.70;99.90
43087;DHT22;28708;52.224;6.924;2023-05-10T13:51:56;17.70;99.90
43087;DHT22;28708;52.224;6.924;2023-05-10T13:54:22;18.00;99.90
43087;DHT22;28708;52.224;6.924;2023-05-10T13:56:48;18.10;99.90
43087;DHT22;28708;52.224;6.924;2023-05-10T13:59:14;17.80;99.90
43087;DHT22;28708;52.224;6.924;2023-05-10T14:01:40;17.60;99.90
43087;DHT22;28708;52.224;6.924;2023-05-10T14:04:06;17.60;99.90
43087;DHT22;28708;52.224;6.924;2023-05-10T14:06:36;17.60;99.90
43087;DHT22;28708;52.224;6.924;2023-05-10T14:09:02;17.70;99.90
43087;DHT22;28708;52.224;6.924;2023-05-10T14:11:28;17.90;99.90
43087;DHT22;28708;52.224;6.924;2023-05-10T14:13:54;17.90;99.90
43087;DHT22;28708;52.224;6.924;2023-05-10T14:16:20;18.00;99.90
43087;DHT22;28708;52.224;6.924;2023-05-10T14:18:46;18.00;99.90
43087;DHT22;28708;52.224;6.924;2023-05-10T14:21:12;17.90;99.90
43087;DHT22;28708;52.224;6.924;2023-05-10T14:23:38;17.40;99.90
43087;DHT22;28708;52.224;6.924;2023-05-10T14:26:03;17.10;99.90
43087;DHT22;28708;52.224;6.924;2023-05-10T14:28:29;16.90;99.90
43087;DHT22;28708;52.224;6.924;2023-05-10T14:30:55;16.90;99.90
43087;DHT22;28708;52.224;6.924;2023-05-10T14:33:20;17.00;99.90
43087;DHT22;28708;52.224;6.924;2023-05-10T14:35:46;17.10;99.90
43087;DHT22;28708;52.224;6.924;2023-05-10T14:38:13;17.40;99.90
43087;DHT22;28708;52.224;6.924;2023-05-10T14:40:38;17.70;99.90
43087;DHT22;28708;52.224;6.924;2023-05-10T14:43:04;17.90;99.90
43087;DHT22;28708;52.224;6.924;2023-05-10T14:45:30;18.20;99.90
43087;DHT22;28708;52.224;6.924;2023-05-10T14:47:55;18.10;99.90
43087;DHT22;28708;52.224;6.924;2023-05-10T14:50:21;17.80;99.90
43087;DHT22;28708;52.224;6.924;2023-05-10T14:52:47;17.70;99.90
43087;DHT22;28708;52.224;6.924;2023-05-10T14:55:13;17.60;99.90
43087;DHT22;28708;52.224;6.924;2023-05-10T14:57:38;17.50;99.90
43087;DHT22;28708;52.224;6.924;2023-05-10T15:00:04;17.30;99.90
43087;DHT22;28708;52.224;6.924;2023-05-10T15:02:31;17.30;99.90
43087;DHT22;28708;52.224;6.924;2023-05-10T15:04:57;17.40;99.90
43087;DHT22;28708;52.224;6.924;2023-05-10T15:07:23;17.40;99.90
43087;DHT22;28708;52.224;6.924;2023-05-10T15:09:50;17.60;99.90
43087;DHT22;28708;52.224;6.924;2023-05-10T15:12:17;17.70;99.90
43087;DHT22;28708;52.224;6.924;2023-05-10T15:14:43;17.70;99.90
43087;DHT22;28708;52.224;6.924;2023-05-10T15:17:08;17.60;99.90
43087;DHT22;28708;52.224;6.924;2023-05-10T15:19:34;17.50;99.90
43087;DHT22;28708;52.224;6.924;2023-05-10T15:21:59;17.90;99.90
43087;DHT22;28708;52.224;6.924;2023-05-10T15:24:25;18.40;99.90
43087;DHT22;28708;52.224;6.924;2023-05-10T15:26:51;18.90;99.90
43087;DHT22;28708;52.224;6.924;2023-05-10T15:29:16;18.70;99.90
43087;DHT22;28708;52.224;6.924;2023-05-10T15:31:49;18.80;99.90
43087;DHT22;28708;52.224;6.924;2023-05-10T15:34:15;18.70;99.90
43087;DHT22;28708;52.224;6.924;2023-05-10T15:36:41;18.60;99.90
43087;DHT22;28708;52.224;6.924;2023-05-10T15:39:07;18.40;99.90
43087;DHT22;28708;52.224;6.924;2023-05-10T15:41:33;18.30;99.90
43087;DHT22;28708;52.224;6.924;2023-05-10T15:43:58;18.20;99.90
43087;DHT22;28708;52.224;6.924;2023-05-10T15:46:28;18.30;99.90
43087;DHT22;28708;52.224;6.924;2023-05-10T15:48:54;18.30;99.90
43087;DHT22;28708;52.224;6.924;2023-05-10T15:51:20;18.20;99.90
43087;DHT22;28708;52.224;6.924;2023-05-10T15:53:46;18.00;99.90
43087;DHT22;28708;52.224;6.924;2023-05-10T15:56:12;18.00;99.90
43087;DHT22;28708;52.224;6.924;2023-05-10T15:58:39;17.90;99.90
43087;DHT22;28708;52.224;6.924;2023-05-10T16:01:04;17.80;99.90
43087;DHT22;28708;52.224;6.924;2023-05-10T16:03:31;17.90;99.90